Time;durP1;ratioP1;P1;durP2;ratioP2;P2;SDS_P1;SDS_P2;PMS_P1;PMS_P2;Temp;Humidity;BMP_temperature;BMP_pressure;BME280_temperature;BME280_humidity;BME280_pressure;Samples;Min_cycle;Max_cycle;Signal;HPM_P1;HPM_P2
2021/06/08 00:00:24;;;;;;;40.45;25.52;;;18.80;99.90;;;;;;5009840;28;20092;-62
2021/06/08 00:02:52;;;;;;;34.15;23.85;;;18.80;99.90;;;;;;5009687;28;20060;-64
2021/06/08 00:05:20;;;;;;;34.88;25.15;;;18.80;99.90;;;;;;5010369;28;20050;-64
2021/06/08 00:07:47;;;;;;;33.45;24.25;;;18.80;99.90;;;;;;5012815;28;20049;-64
2021/06/08 00:10:14;;;;;;;33.78;24.88;;;18.80;99.90;;;;;;5010653;28;20418;-64
2021/06/08 00:12:41;;;;;;;33.83;25.05;;;18.80;99.90;;;;;;5010435;28;20411;-64
2021/06/08 00:15:09;;;;;;;38.95;26.35;;;18.80;99.90;;;;;;5012972;28;20045;-64
2021/06/08 00:17:35;;;;;;;36.65;25.95;;;18.80;99.90;;;;;;5009998;28;20081;-64
2021/06/08 00:20:04;;;;;;;32.53;23.77;;;18.70;99.90;;;;;;5010115;28;20572;-64
2021/06/08 00:22:31;;;;;;;37.50;26.65;;;18.70;99.90;;;;;;5010147;28;20525;-64
2021/06/08 00:24:57;;;;;;;35.15;24.48;;;18.70;99.90;;;;;;5013031;28;20123;-62
2021/06/08 00:27:24;;;;;;;37.10;24.73;;;18.70;99.90;;;;;;5011107;28;20052;-62
2021/06/08 00:29:51;;;;;;;36.42;25.73;;;18.70;99.90;;;;;;5009272;28;20053;-62
2021/06/08 00:32:17;;;;;;;36.10;25.73;;;18.70;99.90;;;;;;5009760;28;20422;-62
2021/06/08 00:34:44;;;;;;;32.95;25.35;;;18.70;99.90;;;;;;5009406;28;20049;-62
2021/06/08 00:37:11;;;;;;;36.92;24.98;;;18.60;99.90;;;;;;5009368;28;21010;-62
2021/06/08 00:39:38;;;;;;;35.67;24.85;;;18.70;99.90;;;;;;5009236;28;20049;-62
2021/06/08 00:42:05;;;;;;;35.47;25.27;;;18.70;99.90;;;;;;5009954;28;20081;-62
2021/06/08 00:44:31;;;;;;;35.53;25.60;;;18.70;99.90;;;;;;5010275;28;20056;-62
2021/06/08 00:46:58;;;;;;;37.65;25.83;;;18.80;99.90;;;;;;5010667;28;20045;-62
2021/06/08 00:49:25;;;;;;;35.33;25.60;;;18.70;99.90;;;;;;5012042;28;20041;-64
2021/06/08 00:51:52;;;;;;;39.38;25.55;;;18.70;99.90;;;;;;5009470;28;20505;-64
2021/06/08 00:54:19;;;;;;;35.42;25.23;;;18.70;99.90;;;;;;5010533;28;20097;-64
2021/06/08 00:56:46;;;;;;;40.08;26.10;;;18.60;99.90;;;;;;5010249;28;20081;-64
2021/06/08 00:59:13;;;;;;;33.53;25.58;;;18.60;99.90;;;;;;5009195;28;20053;-64
2021/06/08 01:01:40;;;;;;;39.22;27.25;;;18.60;99.90;;;;;;5008214;28;20072;-62
2021/06/08 01:04:10;;;;;;;36.63;26.85;;;18.60;99.90;;;;;;5009771;28;20387;-64
2021/06/08 01:06:38;;;;;;;42.95;25.88;;;18.50;99.90;;;;;;5009885;28;20072;-64
2021/06/08 01:09:06;;;;;;;39.03;27.73;;;18.60;99.90;;;;;;5009376;28;20050;-64
2021/06/08 01:11:35;;;;;;;39.05;26.05;;;18.60;99.90;;;;;;5007494;28;20136;-62
2021/06/08 01:14:03;;;;;;;36.88;25.48;;;18.60;99.90;;;;;;5009384;28;20049;-62
2021/06/08 01:16:30;;;;;;;40.53;26.80;;;18.60;99.90;;;;;;5009678;28;20695;-62
2021/06/08 01:18:57;;;;;;;36.45;26.38;;;18.70;99.90;;;;;;5008936;28;20502;-64
2021/06/08 01:21:27;;;;;;;39.70;27.00;;;18.70;99.90;;;;;;5008027;28;20065;-64
2021/06/08 01:23:54;;;;;;;36.05;26.90;;;18.60;99.90;;;;;;5008956;28;20356;-64
2021/06/08 01:26:24;;;;;;;37.67;26.92;;;18.50;99.90;;;;;;5008966;28;20048;-64
2021/06/08 01:28:51;;;;;;;39.72;27.48;;;18.50;99.90;;;;;;5008995;28;20053;-64
2021/06/08 01:31:21;;;;;;;38.47;27.17;;;18.60;99.90;;;;;;5009030;28;20081;-64
2021/06/08 01:33:48;;;;;;;42.55;27.52;;;18.60;99.90;;;;;;5009022;28;20049;-64
2021/06/08 01:36:17;;;;;;;39.13;27.13;;;18.60;99.90;;;;;;5008612;28;20088;-64
2021/06/08 01:38:45;;;;;;;38.67;27.20;;;18.60;99.90;;;;;;5005124;28;20424;-64
2021/06/08 01:41:13;;;;;;;38.95;28.52;;;18.50;99.90;;;;;;5003709;28;20045;-63
2021/06/08 01:43:40;;;;;;;36.55;26.85;;;18.50;99.90;;;;;;5007451;28;20087;-64
2021/06/08 01:46:08;;;;;;;38.08;28.33;;;18.50;99.90;;;;;;5008421;28;20128;-64
2021/06/08 01:48:35;;;;;;;44.95;29.50;;;18.60;99.90;;;;;;5007598;28;20085;-64
2021/06/08 01:51:20;;;;;;;37.50;27.88;;;18.50;99.90;;;;;;5008004;28;20498;-64
2021/06/08 01:53:57;;;;;;;44.72;29.27;;;18.40;99.90;;;;;;5008261;28;20568;-64
2021/06/08 01:56:27;;;;;;;44.10;30.67;;;18.50;99.90;;;;;;5012233;28;20305;-64
2021/06/08 01:59:04;;;;;;;40.85;29.00;;;18.40;99.90;;;;;;5011712;28;20049;-64
2021/06/08 02:01:34;;;;;;;;;;;18.40;99.90;;;;;;5012597;28;20053;-62
2021/06/08 02:04:04;;;;;;;45.08;29.85;;;18.50;99.90;;;;;;5012392;28;19925;-62
2021/06/08 02:06:38;;;;;;;40.95;28.77;;;18.40;99.90;;;;;;5013125;28;20065;-64
2021/06/08 02:09:14;;;;;;;41.85;29.02;;;18.40;99.90;;;;;;5012425;28;20054;-64
2021/06/08 02:11:47;;;;;;;40.85;28.67;;;18.40;99.90;;;;;;5011687;28;20117;-64
2021/06/08 02:14:21;;;;;;;41.70;28.95;;;18.50;99.90;;;;;;5014966;28;20079;-62
2021/06/08 02:16:53;;;;;;;40.53;29.65;;;18.50;99.90;;;;;;5013951;28;20107;-64
2021/06/08 02:19:23;;;;;;;39.80;28.88;;;18.50;99.90;;;;;;5015698;28;20119;-64
2021/06/08 02:21:53;;;;;;;40.50;27.70;;;18.40;99.90;;;;;;5013194;28;20055;-64
2021/06/08 02:24:23;;;;;;;42.63;29.48;;;18.50;99.90;;;;;;5014115;28;20081;-64
2021/06/08 02:26:53;;;;;;;44.50;29.30;;;18.40;99.90;;;;;;5014803;28;20112;-64
2021/06/08 02:29:21;;;;;;;44.28;29.15;;;18.40;99.90;;;;;;5013927;28;20422;-64
2021/06/08 02:31:49;;;;;;;44.08;29.83;;;18.30;99.90;;;;;;5013686;28;20083;-62
2021/06/08 02:34:18;;;;;;;43.03;29.48;;;18.40;99.90;;;;;;5013885;28;20057;-64
2021/06/08 02:36:46;;;;;;;40.47;29.63;;;18.40;99.90;;;;;;5013648;28;20524;-64
2021/06/08 02:39:13;;;;;;;41.95;29.58;;;18.40;99.90;;;;;;5013660;28;20461;-64
2021/06/08 02:41:42;;;;;;;42.70;29.88;;;18.40;99.90;;;;;;5012797;28;20056;-64
2021/06/08 02:44:11;;;;;;;42.78;29.95;;;18.40;99.90;;;;;;5013633;28;20092;-64
2021/06/08 02:46:38;;;;;;;41.33;29.77;;;18.40;99.90;;;;;;5014705;28;20145;-64
2021/06/08 02:49:06;;;;;;;44.17;30.13;;;18.30;99.90;;;;;;5014321;28;20057;-64
2021/06/08 02:51:35;;;;;;;44.53;31.23;;;18.40;99.90;;;;;;5013088;28;20053;-64
2021/06/08 02:54:03;;;;;;;44.83;31.50;;;18.40;99.90;;;;;;5013106;28;20924;-64
2021/06/08 02:56:30;;;;;;;44.38;31.38;;;18.40;99.90;;;;;;5014382;28;20052;-64
2021/06/08 02:59:00;;;;;;;44.83;31.25;;;18.30;99.90;;;;;;5012730;28;20577;-64
2021/06/08 03:01:26;;;;;;;48.85;33.45;;;18.30;99.90;;;;;;5013496;28;20057;-65
2021/06/08 03:03:58;;;;;;;48.78;32.72;;;18.30;99.90;;;;;;5013020;28;20056;-64
2021/06/08 03:06:30;;;;;;;49.10;33.80;;;18.20;99.90;;;;;;5013140;28;20436;-64
2021/06/08 03:09:00;;;;;;;50.72;35.38;;;18.20;99.90;;;;;;5013331;28;20095;-64
2021/06/08 03:11:32;;;;;;;51.10;34.30;;;18.10;99.90;;;;;;5013421;28;20041;-64
2021/06/08 03:14:01;;;;;;;53.83;36.55;;;18.10;99.90;;;;;;5012422;28;20054;-65
2021/06/08 03:16:31;;;;;;;52.75;35.63;;;18.10;99.90;;;;;;5012768;28;20469;-64
2021/06/08 03:19:01;;;;;;;54.33;36.75;;;17.90;99.90;;;;;;5012404;28;20128;-65
2021/06/08 03:21:31;;;;;;;62.53;38.92;;;17.90;99.90;;;;;;5012645;28;20049;-64
2021/06/08 03:24:01;;;;;;;56.70;37.83;;;17.80;99.90;;;;;;5012327;28;20090;-64
2021/06/08 03:26:29;;;;;;;64.38;41.50;;;17.80;99.90;;;;;;5011435;28;20045;-65
2021/06/08 03:28:59;;;;;;;62.50;40.47;;;17.80;99.90;;;;;;5011717;28;20168;-65
2021/06/08 03:31:27;;;;;;;61.58;39.72;;;17.80;99.90;;;;;;5011389;28;20920;-64
2021/06/08 03:33:56;;;;;;;62.25;39.78;;;17.70;99.90;;;;;;5012509;28;20049;-64
2021/06/08 03:36:26;;;;;;;65.82;42.33;;;17.70;99.90;;;;;;5011859;28;20494;-65
2021/06/08 03:38:53;;;;;;;70.63;43.30;;;17.70;99.90;;;;;;5011781;28;20052;-65
2021/06/08 03:41:21;;;;;;;67.53;43.10;;;17.70;99.90;;;;;;5011863;28;20056;-65
2021/06/08 03:43:48;;;;;;;70.25;41.15;;;17.60;99.90;;;;;;5012763;28;20107;-65
2021/06/08 03:46:16;;;;;;;61.17;41.10;;;17.70;99.90;;;;;;5012208;28;20053;-64
2021/06/08 03:48:44;;;;;;;65.60;41.17;;;17.70;99.90;;;;;;5011522;28;20136;-64
2021/06/08 03:51:11;;;;;;;67.95;42.75;;;17.70;99.90;;;;;;5011452;28;20478;-64
2021/06/08 03:53:39;;;;;;;66.18;40.42;;;17.60;99.90;;;;;;5011340;28;20042;-64
2021/06/08 03:56:06;;;;;;;63.08;41.80;;;17.60;99.90;;;;;;5012008;28;20045;-64
2021/06/08 03:58:33;;;;;;;65.10;41.80;;;17.70;99.90;;;;;;5011363;28;20061;-64
2021/06/08 04:01:01;;;;;;;66.32;42.53;;;17.70;99.90;;;;;;5010631;28;20498;-65
2021/06/08 04:03:28;;;;;;;70.65;42.70;;;17.70;99.90;;;;;;5011719;28;20080;-64
2021/06/08 04:05:57;;;;;;;69.80;42.80;;;17.60;99.90;;;;;;5010210;28;20053;-64
2021/06/08 04:08:26;;;;;;;74.03;42.25;;;17.60;99.90;;;;;;5010605;28;20053;-64
2021/06/08 04:10:53;;;;;;;65.25;43.55;;;17.60;99.90;;;;;;5010211;28;20053;-64
2021/06/08 04:13:19;;;;;;;73.28;44.55;;;17.60;99.90;;;;;;5011616;28;20103;-64
2021/06/08 04:15:49;;;;;;;64.18;42.00;;;17.60;99.90;;;;;;5011125;28;20053;-64
2021/06/08 04:18:17;;;;;;;69.45;42.30;;;17.70;99.90;;;;;;5009889;28;20127;-64
2021/06/08 04:20:43;;;;;;;72.57;46.33;;;17.60;99.90;;;;;;5010117;28;20061;-64
2021/06/08 04:23:11;;;;;;;77.72;48.22;;;17.60;99.90;;;;;;5011137;28;20061;-64
2021/06/08 04:25:38;;;;;;;86.57;48.70;;;17.60;99.90;;;;;;5011382;28;20383;-64
2021/06/08 04:28:04;;;;;;;90.03;48.83;;;17.70;99.90;;;;;;5010334;28;20054;-64
2021/06/08 04:30:31;;;;;;;90.57;48.63;;;17.60;99.90;;;;;;5010766;28;20095;-66
2021/06/08 04:32:57;;;;;;;82.13;47.47;;;17.60;99.90;;;;;;5011322;28;20045;-66
2021/06/08 04:35:24;;;;;;;90.30;52.08;;;17.60;99.90;;;;;;5011084;28;20517;-64
2021/06/08 04:37:50;;;;;;;92.60;52.80;;;17.60;99.90;;;;;;5010239;28;20053;-64
2021/06/08 04:40:18;;;;;;;82.22;47.55;;;17.60;99.90;;;;;;5010736;28;20054;-64
2021/06/08 04:42:47;;;;;;;89.57;50.90;;;17.70;99.90;;;;;;5011270;28;20053;-64
2021/06/08 04:45:14;;;;;;;86.80;50.67;;;17.70;99.90;;;;;;5009911;28;20103;-64
2021/06/08 04:47:40;;;;;;;94.68;51.78;;;17.60;99.90;;;;;;5009524;28;20076;-63
2021/06/08 04:50:08;;;;;;;85.60;48.95;;;17.80;99.90;;;;;;5010642;28;21182;-63
2021/06/08 04:52:35;;;;;;;84.38;49.08;;;17.80;99.90;;;;;;5010855;28;20452;-64
2021/06/08 04:55:02;;;;;;;86.10;48.67;;;17.80;99.90;;;;;;5011071;28;20045;-64
2021/06/08 04:57:30;;;;;;;87.15;51.03;;;17.80;99.90;;;;;;5010449;28;20088;-65
2021/06/08 05:00:03;;;;;;;90.63;50.05;;;17.90;99.90;;;;;;5010536;28;20053;-64
2021/06/08 05:02:35;;;;;;;89.70;50.90;;;17.90;99.90;;;;;;5010816;28;20085;-63
2021/06/08 05:05:06;;;;;;;86.65;50.97;;;17.90;99.90;;;;;;5010534;28;20122;-64
2021/06/08 05:07:37;;;;;;;89.53;49.83;;;17.90;99.90;;;;;;5010239;28;20049;-64
2021/06/08 05:10:05;;;;;;;82.20;47.00;;;18.00;99.90;;;;;;5009877;28;20056;-64
2021/06/08 05:12:35;;;;;;;84.55;47.33;;;18.00;99.90;;;;;;5011300;28;20045;-63
2021/06/08 05:15:03;;;;;;;75.80;45.45;;;18.00;99.90;;;;;;5011699;28;20053;-63
2021/06/08 05:17:32;;;;;;;77.82;45.53;;;18.10;99.90;;;;;;5010402;28;20119;-63
2021/06/08 05:19:59;;;;;;;81.95;48.05;;;18.10;99.90;;;;;;5011122;28;20458;-63
2021/06/08 05:22:26;;;;;;;76.95;45.08;;;18.10;99.90;;;;;;5009647;28;20049;-63
2021/06/08 05:24:55;;;;;;;84.53;48.63;;;18.10;99.90;;;;;;5009750;28;20049;-63
2021/06/08 05:27:22;;;;;;;76.80;45.13;;;18.20;99.90;;;;;;5009782;28;20045;-63
2021/06/08 05:29:54;;;;;;;78.50;44.85;;;18.20;99.90;;;;;;5012166;28;20148;-63
2021/06/08 05:32:21;;;;;;;78.93;44.00;;;18.30;99.90;;;;;;5014905;28;20052;-63
2021/06/08 05:34:47;;;;;;;75.22;44.83;;;18.30;99.90;;;;;;5015467;28;20064;-64
2021/06/08 05:37:15;;;;;;;76.03;44.55;;;18.30;99.90;;;;;;5014032;28;20409;-64
2021/06/08 05:39:43;;;;;;;72.38;42.38;;;18.40;99.90;;;;;;5012831;28;20057;-64
2021/06/08 05:42:11;;;;;;;63.80;39.85;;;18.50;99.90;;;;;;5014784;28;20068;-64
2021/06/08 05:44:37;;;;;;;72.68;43.05;;;18.50;99.90;;;;;;5014208;28;20061;-64
2021/06/08 05:47:07;;;;;;;66.95;40.42;;;18.50;99.90;;;;;;5014796;28;20076;-64
2021/06/08 05:49:37;;;;;;;68.88;39.85;;;18.60;99.90;;;;;;5014108;28;20524;-64
2021/06/08 05:52:05;;;;;;;69.97;40.90;;;18.60;99.90;;;;;;5013888;28;20052;-64
2021/06/08 05:54:31;;;;;;;68.28;37.80;;;18.70;99.90;;;;;;5015523;28;20053;-64
2021/06/08 05:56:59;;;;;;;66.57;38.35;;;18.70;99.90;;;;;;5014629;28;20042;-64
2021/06/08 05:59:26;;;;;;;60.28;38.33;;;18.70;99.90;;;;;;5014805;28;20053;-64
2021/06/08 06:01:53;;;;;;;61.42;37.33;;;18.80;99.90;;;;;;5015027;28;20449;-64
2021/06/08 06:04:24;;;;;;;65.10;37.80;;;18.80;99.90;;;;;;5015896;28;20057;-64
2021/06/08 06:06:52;;;;;;;60.80;36.92;;;18.90;99.90;;;;;;5012599;28;20060;-64
2021/06/08 06:09:22;;;;;;;62.13;37.72;;;18.90;99.90;;;;;;5012936;28;20046;-64
2021/06/08 06:11:51;;;;;;;64.82;37.72;;;18.90;99.90;;;;;;5012731;28;20093;-64
2021/06/08 06:14:20;;;;;;;59.38;36.60;;;19.00;99.90;;;;;;5013070;28;20053;-64
2021/06/08 06:16:50;;;;;;;60.97;37.58;;;19.10;99.90;;;;;;5012961;28;20100;-64
2021/06/08 06:19:17;;;;;;;61.28;35.60;;;19.10;99.90;;;;;;5013307;28;20127;-64
2021/06/08 06:21:46;;;;;;;60.17;34.42;;;19.10;99.90;;;;;;5014023;28;20056;-64
2021/06/08 06:24:13;;;;;;;58.92;36.03;;;19.10;99.90;;;;;;5013828;28;20056;-64
2021/06/08 06:26:41;;;;;;;57.25;35.08;;;19.10;99.90;;;;;;5013482;28;20487;-64
2021/06/08 06:29:09;;;;;;;54.35;35.72;;;19.10;99.90;;;;;;5013284;28;20398;-64
2021/06/08 06:31:36;;;;;;;58.10;35.25;;;19.20;99.90;;;;;;5012482;28;20064;-64
2021/06/08 06:34:03;;;;;;;57.70;34.15;;;19.30;99.90;;;;;;5013878;28;20131;-64
2021/06/08 06:36:32;;;;;;;50.90;32.65;;;19.20;99.90;;;;;;5013035;28;20502;-64
2021/06/08 06:39:04;;;;;;;53.15;34.30;;;19.40;99.90;;;;;;5013887;28;20076;-64
2021/06/08 06:41:31;;;;;;;48.65;31.63;;;19.40;99.90;;;;;;5011938;28;20885;-64
2021/06/08 06:43:58;;;;;;;49.85;31.90;;;19.50;99.90;;;;;;5013201;28;20183;-64
2021/06/08 06:46:29;;;;;;;48.03;31.33;;;19.60;99.90;;;;;;5012588;28;20141;-64
2021/06/08 06:48:56;;;;;;;55.67;32.70;;;19.70;99.90;;;;;;5012971;28;20501;-64
2021/06/08 06:51:23;;;;;;;53.50;31.85;;;19.70;99.90;;;;;;5012475;28;20049;-64
2021/06/08 06:53:50;;;;;;;44.40;29.42;;;19.90;99.90;;;;;;5013106;28;20103;-64
2021/06/08 06:56:20;;;;;;;49.22;29.88;;;20.00;99.90;;;;;;5013368;28;20049;-64
2021/06/08 06:58:46;;;;;;;45.20;29.52;;;20.20;99.90;;;;;;5012249;28;20050;-64
2021/06/08 07:01:13;;;;;;;42.35;29.52;;;20.40;99.90;;;;;;5012735;28;20566;-64
2021/06/08 07:03:42;;;;;;;41.75;28.25;;;20.50;99.90;;;;;;5015192;28;20072;-62
2021/06/08 07:06:10;;;;;;;42.70;29.25;;;20.60;99.90;;;;;;5013576;28;20561;-64
2021/06/08 07:08:38;;;;;;;44.45;28.83;;;20.70;99.90;;;;;;5013039;28;20180;-64
2021/06/08 07:11:07;;;;;;;38.83;25.92;;;20.90;99.90;;;;;;5013847;28;20107;-64
2021/06/08 07:13:36;;;;;;;42.03;27.17;;;21.20;99.90;;;;;;5014098;28;20047;-64
2021/06/08 07:16:02;;;;;;;39.33;27.55;;;21.20;99.90;;;;;;5013689;28;20049;-64
2021/06/08 07:18:29;;;;;;;36.85;26.30;;;21.20;99.90;;;;;;5014013;28;20054;-64
2021/06/08 07:20:56;;;;;;;42.35;25.63;;;21.30;99.90;;;;;;5011255;28;20520;-62
2021/06/08 07:23:24;;;;;;;37.67;25.45;;;21.50;99.90;;;;;;5011996;28;20502;-62
2021/06/08 07:25:50;;;;;;;33.78;24.20;;;21.60;99.90;;;;;;5012194;28;20056;-61
2021/06/08 07:28:18;;;;;;;38.28;24.38;;;21.80;99.90;;;;;;5011448;28;20049;-62
2021/06/08 07:30:47;;;;;;;34.25;24.60;;;22.00;99.90;;;;;;5011873;28;20441;-62
2021/06/08 07:33:22;;;;;;;37.22;26.50;;;21.90;99.90;;;;;;5014759;28;20049;-62
2021/06/08 07:35:53;;;;;;;35.28;24.05;;;22.00;99.90;;;;;;5013158;28;20057;-62
2021/06/08 07:38:22;;;;;;;34.63;24.58;;;22.00;99.90;;;;;;5014011;28;20049;-64
2021/06/08 07:40:58;;;;;;;37.40;24.85;;;22.10;99.90;;;;;;5011560;28;20112;-64
2021/06/08 07:43:29;;;;;;;35.10;24.83;;;22.20;99.90;;;;;;5012316;28;20509;-64
2021/06/08 07:46:02;;;;;;;30.60;23.45;;;22.30;99.90;;;;;;5012067;28;20053;-64
2021/06/08 07:48:30;;;;;;;35.15;24.52;;;22.40;99.90;;;;;;5011477;28;20045;-62
2021/06/08 07:50:57;;;;;;;33.08;23.10;;;22.40;99.90;;;;;;5010694;28;20053;-62
2021/06/08 07:53:30;;;;;;;32.05;21.92;;;22.60;99.90;;;;;;5012604;28;20073;-62
2021/06/08 07:55:57;;;;;;;34.13;22.30;;;22.60;99.90;;;;;;5012242;28;20045;-62
2021/06/08 07:58:25;;;;;;;35.10;21.88;;;22.60;99.90;;;;;;5010977;28;20534;-62
2021/06/08 08:00:56;;;;;;;31.38;21.17;;;22.70;99.90;;;;;;5010079;28;20045;-62
2021/06/08 08:03:25;;;;;;;38.85;22.27;;;23.20;99.90;;;;;;5012316;28;20136;-62
2021/06/08 08:05:52;;;;;;;29.20;21.17;;;23.30;99.90;;;;;;5012171;28;20089;-62
2021/06/08 08:08:20;;;;;;;30.35;21.83;;;23.60;99.90;;;;;;5012857;28;20045;-62
2021/06/08 08:10:47;;;;;;;26.73;20.63;;;23.90;99.90;;;;;;5008709;28;20571;-62
2021/06/08 08:13:15;;;;;;;29.55;21.27;;;23.90;99.90;;;;;;5009692;28;20041;-62
2021/06/08 08:15:45;;;;;;;28.92;21.02;;;24.20;99.90;;;;;;5012611;28;20045;-62
2021/06/08 08:18:13;;;;;;;26.15;18.58;;;24.50;99.90;;;;;;5011980;28;20383;-62
2021/06/08 08:20:46;;;;;;;27.33;19.45;;;24.90;99.90;;;;;;5012484;28;20170;-62
2021/06/08 08:23:14;;;;;;;29.02;19.05;;;25.00;99.90;;;;;;5012824;28;20422;-62
2021/06/08 08:25:41;;;;;;;23.58;18.58;;;25.10;99.90;;;;;;5012419;28;20111;-62
2021/06/08 08:28:08;;;;;;;28.08;17.63;;;25.30;99.90;;;;;;5011528;28;20045;-65
2021/06/08 08:30:35;;;;;;;27.13;19.17;;;25.50;99.90;;;;;;5009539;28;20060;-64
2021/06/08 08:33:03;;;;;;;25.80;18.63;;;25.60;99.90;;;;;;5009145;28;20659;-62
2021/06/08 08:35:30;;;;;;;24.02;17.27;;;25.50;99.90;;;;;;5008266;28;20144;-62
2021/06/08 08:37:58;;;;;;;23.63;17.55;;;25.60;99.90;;;;;;5008150;28;20041;-62
2021/06/08 08:40:25;;;;;;;26.00;19.88;;;25.60;99.90;;;;;;5007361;28;20350;-65
2021/06/08 08:42:51;;;;;;;21.50;16.83;;;25.60;99.90;;;;;;5008032;28;20076;-64
2021/06/08 08:45:19;;;;;;;22.75;16.83;;;25.60;99.90;;;;;;5007197;28;20426;-65
2021/06/08 08:47:45;;;;;;;21.25;16.85;;;25.80;99.90;;;;;;5007173;28;20513;-65
2021/06/08 08:50:14;;;;;;;21.25;16.60;;;25.90;99.90;;;;;;5009283;28;20085;-65
2021/06/08 08:52:44;;;;;;;22.73;17.00;;;25.90;99.90;;;;;;5009654;28;20041;-64
2021/06/08 08:55:13;;;;;;;26.45;18.08;;;26.10;99.90;;;;;;5007814;28;20421;-64
2021/06/08 08:57:43;;;;;;;21.52;16.20;;;25.90;99.90;;;;;;5007653;28;20537;-64
2021/06/08 09:00:11;;;;;;;20.80;16.60;;;26.00;99.90;;;;;;4999959;28;20058;-64
2021/06/08 09:02:38;;;;;;;18.60;14.95;;;26.10;99.90;;;;;;5006024;28;20060;-64
2021/06/08 09:05:06;;;;;;;20.10;15.10;;;26.30;99.90;;;;;;5007054;28;20073;-65
2021/06/08 09:07:32;;;;;;;18.23;15.02;;;26.40;99.90;;;;;;5007464;28;20056;-64
2021/06/08 09:09:59;;;;;;;21.98;15.48;;;26.40;99.90;;;;;;5006440;28;20123;-64
2021/06/08 09:12:28;;;;;;;19.90;14.50;;;26.90;99.90;;;;;;5005834;28;20476;-64
2021/06/08 09:14:54;;;;;;;20.17;15.65;;;27.30;99.90;;;;;;5007041;28;20095;-65
2021/06/08 09:17:21;;;;;;;21.27;15.15;;;27.80;99.90;;;;;;5006932;28;20528;-64
2021/06/08 09:19:47;;;;;;;21.42;14.68;;;28.30;99.90;;;;;;5006553;28;20080;-65
2021/06/08 09:22:15;;;;;;;22.02;14.52;;;28.40;99.90;;;;;;5007418;28;20081;-65
2021/06/08 09:24:46;;;;;;;21.15;15.85;;;28.80;99.90;;;;;;5006837;28;20049;-66
2021/06/08 09:27:13;;;;;;;25.13;13.70;;;28.90;99.90;;;;;;5007252;28;20517;-64
2021/06/08 09:29:43;;;;;;;26.95;15.23;;;29.40;99.90;;;;;;5006483;28;20060;-65
2021/06/08 09:32:23;;;;;;;19.65;14.85;;;29.70;99.90;;;;;;5006238;28;20053;-65
2021/06/08 09:34:52;;;;;;;17.80;14.32;;;30.00;99.90;;;;;;5007037;28;20048;-65
2021/06/08 09:37:33;;;;;;;16.10;14.13;;;30.50;99.90;;;;;;5007265;28;20232;-65
2021/06/08 09:39:59;;;;;;;18.35;13.82;;;30.70;99.90;;;;;;5006913;28;20383;-65
2021/06/08 09:42:28;;;;;;;17.88;13.93;;;31.00;99.90;;;;;;5007044;28;20053;-65
2021/06/08 09:45:13;;;;;;;16.27;13.65;;;31.10;99.90;;;;;;5006727;28;20476;-65
2021/06/08 09:47:42;;;;;;;15.47;13.13;;;31.30;99.90;;;;;;5001648;28;20068;-65
2021/06/08 09:50:32;;;;;;;15.48;12.45;;;31.40;99.90;;;;;;4996988;28;20049;-65
2021/06/08 09:53:23;;;;;;;15.68;12.57;;;31.90;99.90;;;;;;4986692;28;20365;-65
2021/06/08 09:55:55;;;;;;;15.13;12.43;;;32.20;99.90;;;;;;4999956;28;20088;-65
2021/06/08 09:58:21;;;;;;;14.30;12.50;;;32.60;99.90;;;;;;5001086;28;20196;-65
2021/06/08 10:01:10;;;;;;;15.18;12.70;;;31.80;99.90;;;;;;5000396;28;20049;-66
2021/06/08 10:03:38;;;;;;;14.80;11.88;;;32.40;99.90;;;;;;5004567;28;20053;-65
2021/06/08 10:06:08;;;;;;;14.63;12.18;;;32.50;99.90;;;;;;5010940;28;20502;-65
2021/06/08 10:08:37;;;;;;;17.10;11.98;;;32.50;99.90;;;;;;5011745;28;20076;-65
2021/06/08 10:11:13;;;;;;;14.52;11.88;;;32.50;99.90;;;;;;5011551;28;20053;-65
2021/06/08 10:13:40;;;;;;;;;;;32.70;99.90;;;;;;5013088;28;20533;-65
2021/06/08 10:16:09;;;;;;;15.68;12.50;;;32.50;99.90;;;;;;5012661;28;19968;-65
2021/06/08 10:18:43;;;;;;;13.32;11.93;;;32.80;99.90;;;;;;5015723;28;20064;-66
2021/06/08 10:21:10;;;;;;;15.27;11.52;;;32.90;99.90;;;;;;5012809;28;20084;-65
2021/06/08 10:23:37;;;;;;;16.00;11.57;;;33.20;99.90;;;;;;5015924;28;20063;-65
2021/06/08 10:26:05;;;;;;;13.93;12.05;;;33.30;99.90;;;;;;5015044;28;20453;-65
2021/06/08 10:28:32;;;;;;;13.88;11.00;;;33.60;99.90;;;;;;5013323;28;20445;-65
2021/06/08 10:31:00;;;;;;;15.82;12.38;;;33.80;99.90;;;;;;5012038;28;20045;-65
2021/06/08 10:33:28;;;;;;;13.63;12.20;;;33.80;99.90;;;;;;5012287;28;20057;-65
2021/06/08 10:35:55;;;;;;;15.27;12.80;;;34.00;99.90;;;;;;5002219;28;20123;-62
2021/06/08 10:38:26;;;;;;;15.18;11.75;;;33.60;99.90;;;;;;5010750;28;20076;-63
2021/06/08 10:40:55;;;;;;;15.75;11.30;;;34.20;99.90;;;;;;5007734;28;20155;-63
2021/06/08 10:43:24;;;;;;;15.60;12.45;;;34.60;99.90;;;;;;5002941;28;20191;-63
2021/06/08 10:45:55;;;;;;;15.65;11.40;;;34.30;99.90;;;;;;5007146;28;20045;-64
2021/06/08 10:48:26;;;;;;;13.95;11.55;;;34.50;99.90;;;;;;5005309;28;20107;-63
2021/06/08 10:51:10;;;;;;;12.95;11.43;;;34.60;99.90;;;;;;5006975;28;20057;-63
2021/06/08 10:53:37;;;;;;;12.30;11.02;;;34.80;99.90;;;;;;5007475;28;20111;-63
2021/06/08 10:56:24;;;;;;;12.82;10.35;;;35.00;99.90;;;;;;5003922;28;20988;-63
2021/06/08 10:58:52;;;;;;;13.43;10.68;;;34.90;99.90;;;;;;5012508;28;20501;-62
2021/06/08 11:01:44;;;;;;;12.55;10.65;;;34.80;99.90;;;;;;5012248;28;20053;-62
2021/06/08 11:04:13;;;;;;;13.45;11.00;;;34.60;99.90;;;;;;5013300;28;20468;-62
2021/06/08 11:06:50;;;;;;;11.77;10.32;;;34.10;99.90;;;;;;5011890;28;20091;-63
2021/06/08 11:09:19;;;;;;;14.38;10.65;;;33.60;99.90;;;;;;5011738;28;20414;-62
2021/06/08 11:11:51;;;;;;;14.40;11.10;;;33.20;99.90;;;;;;5011123;28;20485;-63
2021/06/08 11:14:48;;;;;;;13.05;10.02;;;33.30;99.90;;;;;;5013167;28;20057;-62
2021/06/08 11:17:27;;;;;;;14.90;9.93;;;34.00;99.90;;;;;;5005448;28;20051;-62
2021/06/08 11:19:55;;;;;;;20.20;10.18;;;34.20;99.90;;;;;;5012226;28;20061;-65
2021/06/08 11:22:43;;;;;;;13.75;10.60;;;34.70;99.90;;;;;;5010215;28;20077;-65
2021/06/08 11:25:29;;;;;;;14.13;11.10;;;34.10;99.90;;;;;;5004608;28;20084;-65
2021/06/08 11:27:56;;;;;;;15.73;10.45;;;34.50;99.90;;;;;;5011086;28;20041;-65
2021/06/08 11:30:24;;;;;;;14.52;10.23;;;35.00;99.90;;;;;;5010325;28;20042;-65
2021/06/08 11:32:52;;;;;;;12.45;10.05;;;34.50;99.90;;;;;;5011127;28;20536;-65
2021/06/08 11:35:22;;;;;;;14.50;9.98;;;34.60;99.90;;;;;;5009304;28;20472;-65
2021/06/08 11:37:56;;;;;;;11.95;10.38;;;34.70;99.90;;;;;;5011935;28;20049;-65
2021/06/08 11:40:55;;;;;;;12.55;9.52;;;34.00;99.80;;;;;;5012332;28;20585;-65
2021/06/08 11:43:43;;;;;;;11.55;9.52;;;35.10;99.90;;;;;;5008728;28;20050;-63
2021/06/08 11:46:12;;;;;;;12.50;9.77;;;35.30;99.90;;;;;;5004716;28;20091;-63
2021/06/08 11:48:40;;;;;;;10.60;9.45;;;35.40;98.30;;;;;;5012696;28;20053;-63
2021/06/08 11:51:35;;;;;;;11.73;9.13;;;35.20;98.20;;;;;;5013014;28;20064;-63
2021/06/08 11:54:06;;;;;;;14.88;10.35;;;35.60;98.90;;;;;;5013026;28;20132;-63
2021/06/08 11:56:55;;;;;;;12.35;8.60;;;35.60;96.70;;;;;;5012358;28;20084;-63
2021/06/08 11:59:25;;;;;;;11.48;8.85;;;35.40;96.50;;;;;;5012674;28;20502;-65
2021/06/08 12:01:58;;;;;;;13.25;8.70;;;35.30;96.40;;;;;;5012946;28;20115;-65
2021/06/08 12:04:26;;;;;;;9.93;8.57;;;35.40;94.60;;;;;;5013090;28;20049;-65
2021/06/08 12:07:05;;;;;;;16.75;8.38;;;35.80;96.40;;;;;;5013167;28;20510;-65
2021/06/08 12:09:35;;;;;;;11.40;8.15;;;35.50;95.60;;;;;;5013063;28;20089;-66
2021/06/08 12:12:09;;;;;;;10.32;8.02;;;36.20;93.50;;;;;;5012025;28;20406;-66
2021/06/08 12:14:36;;;;;;;11.77;7.85;;;36.40;93.90;;;;;;5012489;28;20522;-65
2021/06/08 12:17:04;;;;;;;10.70;8.20;;;36.30;93.30;;;;;;5013167;28;20076;-65
2021/06/08 12:19:32;;;;;;;9.68;8.38;;;35.10;90.90;;;;;;5012575;28;20050;-66
2021/06/08 12:22:01;;;;;;;11.25;7.85;;;35.90;93.60;;;;;;5012467;28;20056;-66
2021/06/08 12:24:28;;;;;;;11.40;8.27;;;36.40;90.50;;;;;;5012091;28;20494;-63
2021/06/08 12:26:58;;;;;;;12.27;8.05;;;36.50;91.00;;;;;;5012563;28;20060;-63
2021/06/08 12:29:25;;;;;;;10.15;8.27;;;36.80;90.00;;;;;;5015497;28;20062;-63
2021/06/08 12:31:55;;;;;;;8.85;7.35;;;37.00;86.40;;;;;;5015158;28;20100;-63
2021/06/08 12:34:24;;;;;;;9.77;6.75;;;36.40;90.90;;;;;;5015592;28;20128;-63
2021/06/08 12:36:52;;;;;;;9.18;6.90;;;37.20;89.00;;;;;;5015647;28;20053;-63
2021/06/08 12:39:20;;;;;;;10.30;7.65;;;37.50;89.50;;;;;;5015320;28;20058;-63